sensor_id;sensor_type;location;lat;lon;timestamp;P1;durP1;ratioP1;P2;durP2;ratioP2
68806;SDS011;55800;54.272;18.558;2022-12-11T00:00:42;82.13;;;42.13;;
68806;SDS011;55800;54.272;18.558;2022-12-11T00:03:31;93.70;;;41.60;;
68806;SDS011;55800;54.272;18.558;2022-12-11T00:06:03;87.22;;;39.58;;
68806;SDS011;55800;54.272;18.558;2022-12-11T00:08:33;98.00;;;41.63;;
68806;SDS011;55800;54.272;18.558;2022-12-11T00:11:02;72.47;;;36.38;;
68806;SDS011;55800;54.272;18.558;2022-12-11T00:13:32;83.78;;;40.78;;
68806;SDS011;55800;54.272;18.558;2022-12-11T00:16:02;90.55;;;41.67;;
68806;SDS011;55800;54.272;18.558;2022-12-11T00:18:32;102.03;;;46.50;;
68806;SDS011;55800;54.272;18.558;2022-12-11T00:21:02;88.40;;;44.35;;
68806;SDS011;55800;54.272;18.558;2022-12-11T00:23:33;84.60;;;42.67;;
68806;SDS011;55800;54.272;18.558;2022-12-11T00:26:04;112.83;;;51.07;;
68806;SDS011;55800;54.272;18.558;2022-12-11T00:28:36;110.33;;;54.20;;
68806;SDS011;55800;54.272;18.558;2022-12-11T00:31:07;100.30;;;45.03;;
68806;SDS011;55800;54.272;18.558;2022-12-11T00:33:40;98.70;;;45.63;;
68806;SDS011;55800;54.272;18.558;2022-12-11T00:36:10;92.32;;;43.40;;
68806;SDS011;55800;54.272;18.558;2022-12-11T00:38:40;112.90;;;45.57;;
68806;SDS011;55800;54.272;18.558;2022-12-11T00:41:10;93.47;;;44.23;;
68806;SDS011;55800;54.272;18.558;2022-12-11T00:43:39;79.20;;;40.75;;
68806;SDS011;55800;54.272;18.558;2022-12-11T00:46:10;94.90;;;43.05;;
68806;SDS011;55800;54.272;18.558;2022-12-11T00:48:40;63.80;;;35.47;;
68806;SDS011;55800;54.272;18.558;2022-12-11T00:51:09;90.50;;;44.58;;
68806;SDS011;55800;54.272;18.558;2022-12-11T00:53:38;89.07;;;40.90;;
68806;SDS011;55800;54.272;18.558;2022-12-11T00:56:08;83.22;;;37.80;;
68806;SDS011;55800;54.272;18.558;2022-12-11T00:58:39;82.30;;;39.73;;
68806;SDS011;55800;54.272;18.558;2022-12-11T01:01:09;96.05;;;45.42;;
68806;SDS011;55800;54.272;18.558;2022-12-11T01:03:41;104.07;;;49.03;;
68806;SDS011;55800;54.272;18.558;2022-12-11T01:06:12;102.40;;;43.75;;
68806;SDS011;55800;54.272;18.558;2022-12-11T01:08:42;93.27;;;41.87;;
68806;SDS011;55800;54.272;18.558;2022-12-11T01:11:13;79.78;;;38.70;;
68806;SDS011;55800;54.272;18.558;2022-12-11T01:13:43;79.33;;;36.20;;
68806;SDS011;55800;54.272;18.558;2022-12-11T01:16:14;93.97;;;42.70;;
68806;SDS011;55800;54.272;18.558;2022-12-11T01:18:43;91.30;;;40.70;;
68806;SDS011;55800;54.272;18.558;2022-12-11T01:21:12;83.53;;;39.78;;
68806;SDS011;55800;54.272;18.558;2022-12-11T01:23:41;87.83;;;41.60;;
68806;SDS011;55800;54.272;18.558;2022-12-11T01:26:11;83.40;;;38.22;;
68806;SDS011;55800;54.272;18.558;2022-12-11T01:28:43;88.83;;;43.00;;
68806;SDS011;55800;54.272;18.558;2022-12-11T01:33:44;87.53;;;38.00;;
68806;SDS011;55800;54.272;18.558;2022-12-11T01:36:14;98.03;;;46.72;;
68806;SDS011;55800;54.272;18.558;2022-12-11T01:38:45;80.20;;;41.47;;
68806;SDS011;55800;54.272;18.558;2022-12-11T01:41:18;97.10;;;43.87;;
68806;SDS011;55800;54.272;18.558;2022-12-11T01:43:58;72.70;;;32.87;;
68806;SDS011;55800;54.272;18.558;2022-12-11T01:46:31;97.50;;;44.90;;
68806;SDS011;55800;54.272;18.558;2022-12-11T01:49:02;93.50;;;47.13;;
68806;SDS011;55800;54.272;18.558;2022-12-11T01:51:36;99.07;;;41.63;;
68806;SDS011;55800;54.272;18.558;2022-12-11T01:54:11;94.07;;;45.90;;
68806;SDS011;55800;54.272;18.558;2022-12-11T01:56:43;101.03;;;40.83;;
68806;SDS011;55800;54.272;18.558;2022-12-11T01:59:13;72.50;;;37.27;;
68806;SDS011;55800;54.272;18.558;2022-12-11T02:01:48;80.93;;;41.40;;
68806;SDS011;55800;54.272;18.558;2022-12-11T02:04:22;99.27;;;43.87;;
68806;SDS011;55800;54.272;18.558;2022-12-11T02:06:52;85.88;;;42.17;;
68806;SDS011;55800;54.272;18.558;2022-12-11T02:09:22;77.50;;;37.47;;
68806;SDS011;55800;54.272;18.558;2022-12-11T02:11:54;81.00;;;37.63;;
68806;SDS011;55800;54.272;18.558;2022-12-11T02:14:31;87.93;;;41.53;;
68806;SDS011;55800;54.272;18.558;2022-12-11T02:17:09;94.83;;;45.17;;
68806;SDS011;55800;54.272;18.558;2022-12-11T02:19:44;65.93;;;34.43;;
68806;SDS011;55800;54.272;18.558;2022-12-11T02:22:26;80.73;;;41.30;;
68806;SDS011;55800;54.272;18.558;2022-12-11T02:25:08;76.80;;;38.47;;
68806;SDS011;55800;54.272;18.558;2022-12-11T02:27:46;73.30;;;37.20;;
68806;SDS011;55800;54.272;18.558;2022-12-11T02:30:23;85.63;;;38.83;;
68806;SDS011;55800;54.272;18.558;2022-12-11T02:32:54;84.03;;;41.13;;
68806;SDS011;55800;54.272;18.558;2022-12-11T02:35:25;88.83;;;40.20;;
68806;SDS011;55800;54.272;18.558;2022-12-11T02:38:00;90.40;;;47.43;;
68806;SDS011;55800;54.272;18.558;2022-12-11T02:40:32;94.43;;;47.00;;
68806;SDS011;55800;54.272;18.558;2022-12-11T02:43:07;85.53;;;44.27;;
68806;SDS011;55800;54.272;18.558;2022-12-11T02:45:41;86.97;;;41.23;;
68806;SDS011;55800;54.272;18.558;2022-12-11T02:48:13;86.07;;;43.73;;
68806;SDS011;55800;54.272;18.558;2022-12-11T02:50:44;82.53;;;40.30;;
68806;SDS011;55800;54.272;18.558;2022-12-11T02:53:16;89.00;;;43.67;;
68806;SDS011;55800;54.272;18.558;2022-12-11T02:55:49;101.73;;;43.57;;
68806;SDS011;55800;54.272;18.558;2022-12-11T02:58:24;77.93;;;43.17;;
68806;SDS011;55800;54.272;18.558;2022-12-11T03:00:58;89.97;;;44.33;;
68806;SDS011;55800;54.272;18.558;2022-12-11T03:03:28;90.80;;;44.17;;
68806;SDS011;55800;54.272;18.558;2022-12-11T03:05:57;89.75;;;44.47;;
68806;SDS011;55800;54.272;18.558;2022-12-11T03:08:27;80.35;;;41.75;;
68806;SDS011;55800;54.272;18.558;2022-12-11T03:10:56;85.63;;;39.43;;
68806;SDS011;55800;54.272;18.558;2022-12-11T03:13:26;88.43;;;42.63;;
68806;SDS011;55800;54.272;18.558;2022-12-11T03:16:01;89.32;;;40.67;;
68806;SDS011;55800;54.272;18.558;2022-12-11T03:18:38;77.90;;;43.00;;
68806;SDS011;55800;54.272;18.558;2022-12-11T03:21:16;77.27;;;39.63;;
68806;SDS011;55800;54.272;18.558;2022-12-11T03:23:53;82.30;;;41.27;;
68806;SDS011;55800;54.272;18.558;2022-12-11T03:26:29;87.37;;;41.37;;
68806;SDS011;55800;54.272;18.558;2022-12-11T03:29:06;91.23;;;44.20;;
68806;SDS011;55800;54.272;18.558;2022-12-11T03:31:42;92.27;;;45.93;;
68806;SDS011;55800;54.272;18.558;2022-12-11T03:34:18;90.77;;;41.13;;
68806;SDS011;55800;54.272;18.558;2022-12-11T03:36:54;91.37;;;40.47;;
68806;SDS011;55800;54.272;18.558;2022-12-11T03:39:28;77.97;;;39.60;;
68806;SDS011;55800;54.272;18.558;2022-12-11T03:42:00;90.43;;;42.63;;
68806;SDS011;55800;54.272;18.558;2022-12-11T03:44:33;82.10;;;39.17;;
68806;SDS011;55800;54.272;18.558;2022-12-11T03:47:05;77.07;;;40.27;;
68806;SDS011;55800;54.272;18.558;2022-12-11T03:49:37;76.90;;;35.97;;
68806;SDS011;55800;54.272;18.558;2022-12-11T03:52:09;77.90;;;37.30;;
68806;SDS011;55800;54.272;18.558;2022-12-11T03:54:41;91.63;;;42.03;;
68806;SDS011;55800;54.272;18.558;2022-12-11T03:57:14;77.27;;;38.27;;
68806;SDS011;55800;54.272;18.558;2022-12-11T03:59:45;80.60;;;38.50;;
68806;SDS011;55800;54.272;18.558;2022-12-11T04:02:16;80.28;;;38.35;;
68806;SDS011;55800;54.272;18.558;2022-12-11T04:04:46;77.17;;;37.43;;
68806;SDS011;55800;54.272;18.558;2022-12-11T04:07:15;84.07;;;37.20;;
68806;SDS011;55800;54.272;18.558;2022-12-11T04:09:44;84.13;;;38.65;;
68806;SDS011;55800;54.272;18.558;2022-12-11T04:12:13;85.77;;;39.43;;
68806;SDS011;55800;54.272;18.558;2022-12-11T04:14:42;69.25;;;36.35;;
68806;SDS011;55800;54.272;18.558;2022-12-11T04:17:32;84.13;;;37.80;;
68806;SDS011;55800;54.272;18.558;2022-12-11T04:20:21;74.93;;;35.60;;
68806;SDS011;55800;54.272;18.558;2022-12-11T04:23:10;65.57;;;38.13;;
68806;SDS011;55800;54.272;18.558;2022-12-11T04:26:02;81.10;;;39.50;;
68806;SDS011;55800;54.272;18.558;2022-12-11T04:28:32;67.23;;;36.83;;
68806;SDS011;55800;54.272;18.558;2022-12-11T04:31:02;78.55;;;36.83;;
68806;SDS011;55800;54.272;18.558;2022-12-11T04:33:33;81.72;;;42.15;;
68806;SDS011;55800;54.272;18.558;2022-12-11T04:36:02;80.37;;;37.77;;
68806;SDS011;55800;54.272;18.558;2022-12-11T04:38:32;77.50;;;38.58;;
68806;SDS011;55800;54.272;18.558;2022-12-11T04:41:02;70.85;;;37.65;;
68806;SDS011;55800;54.272;18.558;2022-12-11T04:43:33;72.40;;;35.63;;
68806;SDS011;55800;54.272;18.558;2022-12-11T04:46:03;74.83;;;38.23;;
68806;SDS011;55800;54.272;18.558;2022-12-11T04:48:35;79.70;;;37.20;;
68806;SDS011;55800;54.272;18.558;2022-12-11T04:51:06;80.20;;;40.83;;
68806;SDS011;55800;54.272;18.558;2022-12-11T04:56:05;72.78;;;36.20;;
68806;SDS011;55800;54.272;18.558;2022-12-11T04:58:36;69.80;;;38.20;;
68806;SDS011;55800;54.272;18.558;2022-12-11T05:01:07;77.90;;;40.37;;
68806;SDS011;55800;54.272;18.558;2022-12-11T05:03:39;74.10;;;38.77;;
68806;SDS011;55800;54.272;18.558;2022-12-11T05:06:09;84.63;;;43.13;;
68806;SDS011;55800;54.272;18.558;2022-12-11T05:08:39;83.40;;;40.88;;
68806;SDS011;55800;54.272;18.558;2022-12-11T05:11:09;81.00;;;42.37;;
68806;SDS011;55800;54.272;18.558;2022-12-11T05:13:40;75.97;;;42.27;;
68806;SDS011;55800;54.272;18.558;2022-12-11T05:18:42;69.93;;;37.35;;
68806;SDS011;55800;54.272;18.558;2022-12-11T05:21:11;77.10;;;41.47;;
68806;SDS011;55800;54.272;18.558;2022-12-11T05:23:41;79.63;;;39.90;;
68806;SDS011;55800;54.272;18.558;2022-12-11T05:26:12;85.40;;;41.15;;
68806;SDS011;55800;54.272;18.558;2022-12-11T05:28:42;88.00;;;40.23;;
68806;SDS011;55800;54.272;18.558;2022-12-11T05:31:13;85.75;;;43.30;;
68806;SDS011;55800;54.272;18.558;2022-12-11T05:33:46;81.40;;;43.90;;
68806;SDS011;55800;54.272;18.558;2022-12-11T05:36:17;77.30;;;41.23;;
68806;SDS011;55800;54.272;18.558;2022-12-11T05:38:48;78.90;;;39.97;;
68806;SDS011;55800;54.272;18.558;2022-12-11T05:41:19;77.57;;;38.43;;
68806;SDS011;55800;54.272;18.558;2022-12-11T05:43:50;73.67;;;35.90;;
68806;SDS011;55800;54.272;18.558;2022-12-11T05:46:20;74.57;;;37.22;;
68806;SDS011;55800;54.272;18.558;2022-12-11T05:48:53;68.83;;;36.97;;
68806;SDS011;55800;54.272;18.558;2022-12-11T05:51:24;70.53;;;39.15;;
68806;SDS011;55800;54.272;18.558;2022-12-11T05:53:54;71.75;;;35.13;;
68806;SDS011;55800;54.272;18.558;2022-12-11T05:56:25;65.95;;;37.13;;
68806;SDS011;55800;54.272;18.558;2022-12-11T05:58:55;68.70;;;36.78;;
68806;SDS011;55800;54.272;18.558;2022-12-11T06:01:26;74.88;;;38.03;;
68806;SDS011;55800;54.272;18.558;2022-12-11T06:03:58;71.13;;;37.92;;
68806;SDS011;55800;54.272;18.558;2022-12-11T06:06:28;67.32;;;37.72;;
68806;SDS011;55800;54.272;18.558;2022-12-11T06:08:57;70.65;;;36.40;;
68806;SDS011;55800;54.272;18.558;2022-12-11T06:13:57;61.88;;;32.35;;
68806;SDS011;55800;54.272;18.558;2022-12-11T06:16:27;75.20;;;37.08;;
68806;SDS011;55800;54.272;18.558;2022-12-11T06:18:58;67.45;;;36.72;;
68806;SDS011;55800;54.272;18.558;2022-12-11T06:21:28;67.70;;;36.08;;
68806;SDS011;55800;54.272;18.558;2022-12-11T06:24:00;73.93;;;37.03;;
68806;SDS011;55800;54.272;18.558;2022-12-11T06:26:31;79.35;;;37.63;;
68806;SDS011;55800;54.272;18.558;2022-12-11T06:29:00;71.63;;;36.20;;
68806;SDS011;55800;54.272;18.558;2022-12-11T06:31:36;71.57;;;35.80;;
68806;SDS011;55800;54.272;18.558;2022-12-11T06:34:07;74.10;;;35.47;;
68806;SDS011;55800;54.272;18.558;2022-12-11T06:36:38;72.90;;;37.77;;
68806;SDS011;55800;54.272;18.558;2022-12-11T06:39:07;61.85;;;34.97;;
68806;SDS011;55800;54.272;18.558;2022-12-11T06:41:38;68.20;;;36.57;;
68806;SDS011;55800;54.272;18.558;2022-12-11T06:44:07;65.35;;;35.15;;
68806;SDS011;55800;54.272;18.558;2022-12-11T06:46:37;64.00;;;36.17;;
68806;SDS011;55800;54.272;18.558;2022-12-11T06:49:07;77.93;;;36.80;;
68806;SDS011;55800;54.272;18.558;2022-12-11T06:51:36;72.53;;;36.15;;
68806;SDS011;55800;54.272;18.558;2022-12-11T06:54:06;67.40;;;36.58;;
68806;SDS011;55800;54.272;18.558;2022-12-11T06:56:35;74.53;;;37.75;;
68806;SDS011;55800;54.272;18.558;2022-12-11T06:59:04;72.72;;;39.13;;
68806;SDS011;55800;54.272;18.558;2022-12-11T07:01:34;79.07;;;41.45;;
68806;SDS011;55800;54.272;18.558;2022-12-11T07:04:03;67.07;;;36.45;;
68806;SDS011;55800;54.272;18.558;2022-12-11T07:06:34;65.50;;;35.63;;
68806;SDS011;55800;54.272;18.558;2022-12-11T07:09:03;69.32;;;37.10;;
68806;SDS011;55800;54.272;18.558;2022-12-11T07:11:33;70.22;;;37.20;;
68806;SDS011;55800;54.272;18.558;2022-12-11T07:14:02;67.87;;;37.00;;
68806;SDS011;55800;54.272;18.558;2022-12-11T07:16:31;69.50;;;36.00;;
68806;SDS011;55800;54.272;18.558;2022-12-11T07:19:00;67.07;;;38.73;;
68806;SDS011;55800;54.272;18.558;2022-12-11T07:21:30;68.15;;;34.70;;
68806;SDS011;55800;54.272;18.558;2022-12-11T07:24:01;65.97;;;36.85;;
68806;SDS011;55800;54.272;18.558;2022-12-11T07:26:31;66.93;;;38.67;;
68806;SDS011;55800;54.272;18.558;2022-12-11T07:29:00;70.25;;;35.83;;
68806;SDS011;55800;54.272;18.558;2022-12-11T07:31:30;68.75;;;38.40;;
68806;SDS011;55800;54.272;18.558;2022-12-11T07:33:59;69.03;;;37.25;;
68806;SDS011;55800;54.272;18.558;2022-12-11T07:36:31;68.45;;;37.88;;
68806;SDS011;55800;54.272;18.558;2022-12-11T07:41:31;60.67;;;32.85;;
68806;SDS011;55800;54.272;18.558;2022-12-11T07:44:01;62.92;;;34.50;;
68806;SDS011;55800;54.272;18.558;2022-12-11T07:46:31;62.08;;;31.73;;
68806;SDS011;55800;54.272;18.558;2022-12-11T07:49:01;49.13;;;27.80;;
68806;SDS011;55800;54.272;18.558;2022-12-11T07:51:32;57.05;;;29.02;;
68806;SDS011;55800;54.272;18.558;2022-12-11T07:54:04;45.92;;;26.83;;
68806;SDS011;55800;54.272;18.558;2022-12-11T07:56:36;58.20;;;28.05;;
68806;SDS011;55800;54.272;18.558;2022-12-11T07:59:09;50.45;;;26.13;;
68806;SDS011;55800;54.272;18.558;2022-12-11T08:04:09;47.05;;;24.80;;
68806;SDS011;55800;54.272;18.558;2022-12-11T08:06:41;48.30;;;27.05;;
68806;SDS011;55800;54.272;18.558;2022-12-11T08:09:12;47.22;;;26.23;;
68806;SDS011;55800;54.272;18.558;2022-12-11T08:11:47;52.42;;;28.63;;
68806;SDS011;55800;54.272;18.558;2022-12-11T08:16:46;49.55;;;25.63;;
68806;SDS011;55800;54.272;18.558;2022-12-11T08:19:15;47.35;;;25.60;;
68806;SDS011;55800;54.272;18.558;2022-12-11T08:21:45;45.75;;;24.70;;
68806;SDS011;55800;54.272;18.558;2022-12-11T08:24:15;43.67;;;26.40;;
68806;SDS011;55800;54.272;18.558;2022-12-11T08:26:47;46.22;;;25.70;;
68806;SDS011;55800;54.272;18.558;2022-12-11T08:29:16;45.42;;;23.50;;
68806;SDS011;55800;54.272;18.558;2022-12-11T08:31:45;50.20;;;25.50;;
68806;SDS011;55800;54.272;18.558;2022-12-11T08:34:14;44.30;;;25.92;;
68806;SDS011;55800;54.272;18.558;2022-12-11T08:36:44;50.17;;;26.40;;
68806;SDS011;55800;54.272;18.558;2022-12-11T08:39:13;48.45;;;26.60;;
68806;SDS011;55800;54.272;18.558;2022-12-11T08:41:44;44.35;;;26.08;;
68806;SDS011;55800;54.272;18.558;2022-12-11T08:44:13;48.00;;;24.77;;
68806;SDS011;55800;54.272;18.558;2022-12-11T08:46:43;35.75;;;21.77;;
68806;SDS011;55800;54.272;18.558;2022-12-11T08:49:12;44.30;;;21.87;;
68806;SDS011;55800;54.272;18.558;2022-12-11T08:51:41;35.65;;;18.45;;
68806;SDS011;55800;54.272;18.558;2022-12-11T08:54:10;29.53;;;17.47;;
68806;SDS011;55800;54.272;18.558;2022-12-11T08:56:41;31.58;;;17.80;;
68806;SDS011;55800;54.272;18.558;2022-12-11T08:59:10;37.97;;;20.70;;
68806;SDS011;55800;54.272;18.558;2022-12-11T09:01:39;40.28;;;19.80;;
68806;SDS011;55800;54.272;18.558;2022-12-11T09:04:09;26.70;;;15.55;;
68806;SDS011;55800;54.272;18.558;2022-12-11T09:06:38;29.33;;;18.17;;
68806;SDS011;55800;54.272;18.558;2022-12-11T09:09:07;31.55;;;18.63;;
68806;SDS011;55800;54.272;18.558;2022-12-11T09:11:37;30.48;;;16.35;;
68806;SDS011;55800;54.272;18.558;2022-12-11T09:14:07;34.33;;;16.48;;
68806;SDS011;55800;54.272;18.558;2022-12-11T09:16:37;26.77;;;16.75;;
68806;SDS011;55800;54.272;18.558;2022-12-11T09:19:08;31.63;;;16.13;;
68806;SDS011;55800;54.272;18.558;2022-12-11T09:21:41;24.02;;;15.82;;
68806;SDS011;55800;54.272;18.558;2022-12-11T09:24:11;29.35;;;16.48;;
68806;SDS011;55800;54.272;18.558;2022-12-11T09:26:41;28.13;;;14.82;;
68806;SDS011;55800;54.272;18.558;2022-12-11T09:29:12;30.90;;;15.00;;
68806;SDS011;55800;54.272;18.558;2022-12-11T09:31:41;34.70;;;18.38;;
68806;SDS011;55800;54.272;18.558;2022-12-11T09:34:12;30.48;;;16.77;;
68806;SDS011;55800;54.272;18.558;2022-12-11T09:39:11;27.38;;;15.20;;
68806;SDS011;55800;54.272;18.558;2022-12-11T09:41:45;27.80;;;16.23;;
68806;SDS011;55800;54.272;18.558;2022-12-11T09:47:18;28.95;;;16.65;;
68806;SDS011;55800;54.272;18.558;2022-12-11T09:49:52;28.40;;;16.65;;
68806;SDS011;55800;54.272;18.558;2022-12-11T09:52:31;31.30;;;19.40;;
68806;SDS011;55800;54.272;18.558;2022-12-11T09:55:09;33.22;;;16.75;;
68806;SDS011;55800;54.272;18.558;2022-12-11T09:57:46;29.17;;;17.53;;
68806;SDS011;55800;54.272;18.558;2022-12-11T10:00:25;29.60;;;17.77;;
68806;SDS011;55800;54.272;18.558;2022-12-11T10:03:24;27.42;;;16.70;;
68806;SDS011;55800;54.272;18.558;2022-12-11T10:06:14;33.20;;;17.40;;
68806;SDS011;55800;54.272;18.558;2022-12-11T10:08:52;33.38;;;17.58;;
68806;SDS011;55800;54.272;18.558;2022-12-11T10:11:34;35.75;;;20.13;;
68806;SDS011;55800;54.272;18.558;2022-12-11T10:14:24;30.73;;;18.92;;
68806;SDS011;55800;54.272;18.558;2022-12-11T10:17:03;31.67;;;16.50;;
68806;SDS011;55800;54.272;18.558;2022-12-11T10:19:38;27.25;;;16.17;;
68806;SDS011;55800;54.272;18.558;2022-12-11T10:22:11;29.98;;;16.75;;
68806;SDS011;55800;54.272;18.558;2022-12-11T10:24:47;25.90;;;16.90;;
68806;SDS011;55800;54.272;18.558;2022-12-11T10:27:39;31.33;;;17.15;;
68806;SDS011;55800;54.272;18.558;2022-12-11T10:30:13;27.17;;;15.68;;
68806;SDS011;55800;54.272;18.558;2022-12-11T10:32:49;29.75;;;19.13;;
68806;SDS011;55800;54.272;18.558;2022-12-11T10:35:25;28.92;;;17.80;;
68806;SDS011;55800;54.272;18.558;2022-12-11T10:38:00;29.05;;;16.52;;
68806;SDS011;55800;54.272;18.558;2022-12-11T10:40:40;25.25;;;16.15;;
68806;SDS011;55800;54.272;18.558;2022-12-11T10:43:14;22.48;;;15.93;;
68806;SDS011;55800;54.272;18.558;2022-12-11T10:45:51;23.10;;;13.50;;
68806;SDS011;55800;54.272;18.558;2022-12-11T10:48:22;25.02;;;15.18;;
68806;SDS011;55800;54.272;18.558;2022-12-11T10:50:56;22.02;;;14.20;;
68806;SDS011;55800;54.272;18.558;2022-12-11T10:53:28;21.08;;;13.52;;
68806;SDS011;55800;54.272;18.558;2022-12-11T10:55:59;20.90;;;12.35;;
68806;SDS011;55800;54.272;18.558;2022-12-11T10:58:29;18.08;;;11.35;;
68806;SDS011;55800;54.272;18.558;2022-12-11T11:01:04;14.40;;;10.15;;
68806;SDS011;55800;54.272;18.558;2022-12-11T11:03:39;19.08;;;12.35;;
68806;SDS011;55800;54.272;18.558;2022-12-11T11:06:21;16.92;;;11.07;;
68806;SDS011;55800;54.272;18.558;2022-12-11T11:08:52;19.98;;;11.98;;
68806;SDS011;55800;54.272;18.558;2022-12-11T11:11:25;16.77;;;11.88;;
68806;SDS011;55800;54.272;18.558;2022-12-11T11:14:06;17.42;;;10.90;;
68806;SDS011;55800;54.272;18.558;2022-12-11T11:16:41;15.32;;;10.20;;
68806;SDS011;55800;54.272;18.558;2022-12-11T11:19:18;15.70;;;9.77;;
68806;SDS011;55800;54.272;18.558;2022-12-11T11:21:52;15.77;;;10.68;;
68806;SDS011;55800;54.272;18.558;2022-12-11T11:24:27;15.80;;;10.43;;
68806;SDS011;55800;54.272;18.558;2022-12-11T11:27:00;13.45;;;8.85;;
68806;SDS011;55800;54.272;18.558;2022-12-11T11:29:39;14.73;;;9.25;;
68806;SDS011;55800;54.272;18.558;2022-12-11T11:32:16;12.68;;;8.27;;
68806;SDS011;55800;54.272;18.558;2022-12-11T11:34:51;13.63;;;9.63;;
68806;SDS011;55800;54.272;18.558;2022-12-11T11:37:25;17.63;;;13.20;;
68806;SDS011;55800;54.272;18.558;2022-12-11T11:40:00;12.23;;;8.55;;
68806;SDS011;55800;54.272;18.558;2022-12-11T11:42:40;16.77;;;10.68;;
68806;SDS011;55800;54.272;18.558;2022-12-11T11:45:14;12.02;;;8.50;;
68806;SDS011;55800;54.272;18.558;2022-12-11T11:47:50;10.73;;;8.82;;
68806;SDS011;55800;54.272;18.558;2022-12-11T11:50:29;11.15;;;8.13;;
68806;SDS011;55800;54.272;18.558;2022-12-11T11:53:02;11.32;;;8.05;;
68806;SDS011;55800;54.272;18.558;2022-12-11T11:55:39;12.23;;;7.97;;
68806;SDS011;55800;54.272;18.558;2022-12-11T11:58:14;11.13;;;7.70;;
68806;SDS011;55800;54.272;18.558;2022-12-11T12:00:48;14.63;;;8.00;;
68806;SDS011;55800;54.272;18.558;2022-12-11T12:03:20;11.48;;;7.22;;
68806;SDS011;55800;54.272;18.558;2022-12-11T12:05:54;12.05;;;8.32;;
68806;SDS011;55800;54.272;18.558;2022-12-11T12:08:35;14.20;;;8.50;;
68806;SDS011;55800;54.272;18.558;2022-12-11T12:11:12;15.68;;;8.43;;
68806;SDS011;55800;54.272;18.558;2022-12-11T12:13:51;19.65;;;11.25;;
68806;SDS011;55800;54.272;18.558;2022-12-11T12:16:29;20.80;;;12.65;;
68806;SDS011;55800;54.272;18.558;2022-12-11T12:19:23;11.77;;;8.00;;
68806;SDS011;55800;54.272;18.558;2022-12-11T12:22:10;12.50;;;8.55;;
68806;SDS011;55800;54.272;18.558;2022-12-11T12:24:50;9.45;;;6.38;;
68806;SDS011;55800;54.272;18.558;2022-12-11T12:27:32;7.13;;;5.63;;
68806;SDS011;55800;54.272;18.558;2022-12-11T12:30:18;8.32;;;6.47;;
68806;SDS011;55800;54.272;18.558;2022-12-11T12:32:53;9.63;;;6.22;;
68806;SDS011;55800;54.272;18.558;2022-12-11T12:35:35;9.15;;;6.50;;
68806;SDS011;55800;54.272;18.558;2022-12-11T12:38:12;12.23;;;7.15;;
68806;SDS011;55800;54.272;18.558;2022-12-11T12:40:51;9.75;;;6.38;;
68806;SDS011;55800;54.272;18.558;2022-12-11T12:43:33;9.15;;;6.68;;
68806;SDS011;55800;54.272;18.558;2022-12-11T12:46:26;9.85;;;7.03;;
68806;SDS011;55800;54.272;18.558;2022-12-11T12:49:06;12.38;;;7.10;;
68806;SDS011;55800;54.272;18.558;2022-12-11T12:51:42;14.07;;;8.40;;
68806;SDS011;55800;54.272;18.558;2022-12-11T12:54:15;15.00;;;7.30;;
68806;SDS011;55800;54.272;18.558;2022-12-11T12:56:46;11.13;;;7.15;;
68806;SDS011;55800;54.272;18.558;2022-12-11T12:59:19;7.88;;;5.10;;
68806;SDS011;55800;54.272;18.558;2022-12-11T13:01:52;10.43;;;6.32;;
68806;SDS011;55800;54.272;18.558;2022-12-11T13:04:37;12.35;;;7.00;;
68806;SDS011;55800;54.272;18.558;2022-12-11T13:07:25;9.68;;;6.43;;
68806;SDS011;55800;54.272;18.558;2022-12-11T13:09:59;8.98;;;5.38;;
68806;SDS011;55800;54.272;18.558;2022-12-11T13:12:38;7.05;;;6.07;;
68806;SDS011;55800;54.272;18.558;2022-12-11T13:15:23;13.45;;;7.40;;
68806;SDS011;55800;54.272;18.558;2022-12-11T13:17:54;8.48;;;6.30;;
68806;SDS011;55800;54.272;18.558;2022-12-11T13:20:24;9.00;;;6.90;;
68806;SDS011;55800;54.272;18.558;2022-12-11T13:23:08;6.53;;;4.90;;
68806;SDS011;55800;54.272;18.558;2022-12-11T13:25:49;7.97;;;5.22;;
68806;SDS011;55800;54.272;18.558;2022-12-11T13:28:24;10.23;;;5.97;;
68806;SDS011;55800;54.272;18.558;2022-12-11T13:31:00;5.82;;;4.60;;
68806;SDS011;55800;54.272;18.558;2022-12-11T13:33:32;7.07;;;5.50;;
68806;SDS011;55800;54.272;18.558;2022-12-11T13:36:17;5.53;;;4.95;;
68806;SDS011;55800;54.272;18.558;2022-12-11T13:38:56;9.90;;;5.18;;
68806;SDS011;55800;54.272;18.558;2022-12-11T13:41:30;9.35;;;5.55;;
68806;SDS011;55800;54.272;18.558;2022-12-11T13:44:04;7.70;;;5.60;;
68806;SDS011;55800;54.272;18.558;2022-12-11T13:46:35;9.77;;;5.85;;
68806;SDS011;55800;54.272;18.558;2022-12-11T13:49:06;8.63;;;5.38;;
68806;SDS011;55800;54.272;18.558;2022-12-11T13:51:51;9.25;;;5.22;;
68806;SDS011;55800;54.272;18.558;2022-12-11T13:54:23;12.82;;;6.68;;
68806;SDS011;55800;54.272;18.558;2022-12-11T13:59:27;9.10;;;5.05;;
68806;SDS011;55800;54.272;18.558;2022-12-11T14:02:00;11.18;;;5.55;;
68806;SDS011;55800;54.272;18.558;2022-12-11T14:04:34;8.32;;;5.10;;
68806;SDS011;55800;54.272;18.558;2022-12-11T14:07:05;9.32;;;6.38;;
68806;SDS011;55800;54.272;18.558;2022-12-11T14:09:36;7.80;;;6.50;;
68806;SDS011;55800;54.272;18.558;2022-12-11T14:12:16;8.38;;;5.03;;
68806;SDS011;55800;54.272;18.558;2022-12-11T14:14:49;10.40;;;6.55;;
68806;SDS011;55800;54.272;18.558;2022-12-11T14:17:23;8.05;;;6.68;;
68806;SDS011;55800;54.272;18.558;2022-12-11T14:19:55;10.07;;;6.28;;
68806;SDS011;55800;54.272;18.558;2022-12-11T14:22:29;11.02;;;7.65;;
68806;SDS011;55800;54.272;18.558;2022-12-11T14:24:59;13.05;;;9.27;;
68806;SDS011;55800;54.272;18.558;2022-12-11T14:27:32;15.85;;;8.45;;
68806;SDS011;55800;54.272;18.558;2022-12-11T14:30:08;14.00;;;9.50;;
68806;SDS011;55800;54.272;18.558;2022-12-11T14:32:40;14.55;;;8.10;;
68806;SDS011;55800;54.272;18.558;2022-12-11T14:35:16;11.77;;;8.38;;
68806;SDS011;55800;54.272;18.558;2022-12-11T14:37:51;11.90;;;6.13;;
68806;SDS011;55800;54.272;18.558;2022-12-11T14:40:21;13.65;;;7.28;;
68806;SDS011;55800;54.272;18.558;2022-12-11T14:42:57;12.57;;;6.78;;
68806;SDS011;55800;54.272;18.558;2022-12-11T14:45:32;12.30;;;7.05;;
68806;SDS011;55800;54.272;18.558;2022-12-11T14:48:06;14.38;;;6.47;;
68806;SDS011;55800;54.272;18.558;2022-12-11T14:50:40;11.30;;;6.10;;
68806;SDS011;55800;54.272;18.558;2022-12-11T14:53:13;9.00;;;6.50;;
68806;SDS011;55800;54.272;18.558;2022-12-11T14:55:47;11.00;;;6.28;;
68806;SDS011;55800;54.272;18.558;2022-12-11T14:58:20;8.65;;;5.90;;
68806;SDS011;55800;54.272;18.558;2022-12-11T15:00:57;11.50;;;6.55;;
68806;SDS011;55800;54.272;18.558;2022-12-11T15:03:29;12.27;;;7.95;;
68806;SDS011;55800;54.272;18.558;2022-12-11T15:06:00;11.65;;;7.50;;
68806;SDS011;55800;54.272;18.558;2022-12-11T15:08:47;9.88;;;6.82;;
68806;SDS011;55800;54.272;18.558;2022-12-11T15:11:17;9.45;;;7.28;;
68806;SDS011;55800;54.272;18.558;2022-12-11T15:13:50;11.82;;;6.25;;